Terminal Aerodrome Forecast
Issued by NWS Sioux Falls, SD

Home | Current Version | Previous Version | Graphics & Text | Print | Product List | Glossary On
Versions: 1 2 3 4 5 6 7 8 9 10 11 12 13 14 15
000
FTUS43 KFSD 161528 AAA
TAFHON
TAF AMD
KHON 161528Z 1615/1712 14013G24KT P6SM SCT120 BKN200
     FM161800 15018G32KT P6SM BKN140
     FM170500 16014G22KT P6SM SCT200
     FM171000 18008KT P6SM BKN200=

USA.gov is the U.S. government's official web portal to all federal, state and local government web resources and services.